Alyeska Resort
Max's Hourly Weather Roundup
ALYESKA_MAX 4/19/2015
Click Here for Graph

        DATE  TIME   Air  Wind  Wind  Wind  BATT   Rel
                    Temp   Spd   Dir  Gust  Volt  Hum%
                      F   MPH   AVG   MPH   AVG   AVG

   4/19/2015 05:00    30    28    74    68 12.79   100
   4/19/2015 04:00    31    24    82    58 12.81   100
   4/19/2015 03:00    32    32    69    70 12.82   100
   4/19/2015 02:00    32    36    60    72 12.85    98
   4/19/2015 01:00    31    38    65    76 12.87    99
   4/18/2015 24:00    32    39    66    72 12.91   100
   4/18/2015 23:00    31    39    65    78 12.98   100
   4/18/2015 22:00    32    35    78    81 13.10   100
   4/18/2015 21:00    31    40    71    81 13.55    99
   4/18/2015 20:00    31    29    68    66 13.94   100
   4/18/2015 19:00    31    30    73    66 13.89    99
   4/18/2015 18:00    31    25    64    49 13.87    99
   4/18/2015 17:00    31    25    61    52 13.86    98
   4/18/2015 16:00    31    26    74    61 13.84    98
   4/18/2015 15:00    31    24    89    66 13.81    97
   4/18/2015 14:00    31    24    86    63 13.78    96
   4/18/2015 13:00    30    20   118    71 13.74    97
   4/18/2015 12:00    29    12   195    34 13.70    98
   4/18/2015 11:00    29    17   159    65 13.68    97
   4/18/2015 10:00    28    13   196    48 13.68    98
   4/18/2015 09:00    28    16   153    50 13.47    98
   4/18/2015 08:00    27    16   146    50 12.87    97
   4/18/2015 07:00    27    25    94    63 12.77    96
   4/18/2015 06:00    27    27    91    62 12.77    96


Click Here for Graph